createdAt,value
2022-08-02T00:01:52.063Z,18.49
2022-08-02T00:03:50.400Z,18.48
2022-08-02T00:05:53.105Z,18.44
2022-08-02T00:07:53.495Z,18.43
2022-08-02T00:09:52.007Z,18.44
2022-08-02T00:11:50.356Z,18.41
2022-08-02T00:13:48.536Z,18.38
2022-08-02T00:15:46.818Z,18.35
2022-08-02T00:17:45.553Z,18.28
2022-08-02T00:19:46.168Z,18.29
2022-08-02T00:21:44.785Z,18.24
2022-08-02T00:24:29.383Z,18.22
2022-08-02T00:26:03.156Z,18.22
2022-08-02T00:28:01.424Z,18.21
2022-08-02T00:29:59.895Z,18.16
2022-08-02T00:31:58.301Z,18.12
2022-08-02T00:34:05.182Z,18.08
2022-08-02T00:36:14.900Z,18.15
2022-08-02T00:38:13.027Z,18.14
2022-08-02T00:40:13.643Z,18.15
2022-08-02T00:42:12.460Z,18.14
2022-08-02T00:44:10.836Z,18.13
2022-08-02T00:46:11.171Z,18.03
2022-08-02T00:48:11.446Z,17.99
2022-08-02T00:50:10.439Z,18.00
2022-08-02T00:52:09.308Z,17.98
2022-08-02T00:54:08.462Z,17.94
2022-08-02T00:56:08.207Z,17.90
2022-08-02T00:58:06.572Z,18.01
2022-08-02T01:00:07.262Z,17.94
2022-08-02T01:02:05.788Z,17.89
2022-08-02T01:04:04.175Z,17.84
2022-08-02T01:06:17.424Z,17.75
2022-08-02T01:08:15.745Z,17.59
2022-08-02T01:10:15.409Z,17.57
2022-08-02T01:12:15.718Z,17.40
2022-08-02T01:14:16.382Z,17.32
2022-08-02T01:16:20.629Z,17.27
2022-08-02T01:18:26.421Z,17.26
2022-08-02T01:20:47.907Z,17.32
2022-08-02T01:23:06.959Z,17.29
2022-08-02T01:25:29.642Z,17.27
2022-08-02T01:27:41.288Z,17.20
2022-08-02T01:29:44.701Z,17.20
2022-08-02T01:31:51.366Z,17.18
2022-08-02T01:33:55.854Z,17.33
2022-08-02T01:35:58.053Z,17.30
2022-08-02T01:38:01.106Z,17.18
2022-08-02T01:40:06.709Z,16.92
2022-08-02T01:42:07.023Z,16.80
2022-08-02T01:44:06.551Z,16.74
2022-08-02T01:46:06.900Z,16.67
2022-08-02T01:48:07.616Z,16.67
2022-08-02T01:50:08.620Z,16.64
2022-08-02T01:52:25.505Z,16.63
2022-08-02T01:54:26.516Z,16.69
2022-08-02T01:56:25.081Z,16.68
2022-08-02T01:58:27.903Z,16.60
2022-08-02T02:00:29.985Z,16.52
2022-08-02T02:02:31.917Z,16.38
2022-08-02T02:04:33.433Z,16.26
2022-08-02T02:06:33.442Z,16.25
2022-08-02T02:08:36.649Z,16.17
2022-08-02T02:10:38.575Z,16.17
2022-08-02T02:12:40.623Z,16.17
2022-08-02T02:14:39.719Z,16.10
2022-08-02T02:16:39.226Z,16.07
2022-08-02T02:18:43.930Z,16.02
2022-08-02T02:20:44.539Z,15.99
2022-08-02T02:22:43.131Z,15.97
2022-08-02T02:24:42.159Z,15.98
2022-08-02T02:26:52.307Z,15.97
2022-08-02T02:28:53.813Z,16.01
2022-08-02T02:30:56.507Z,16.04
2022-08-02T02:32:57.391Z,16.01
2022-08-02T02:34:58.009Z,16.00
2022-08-02T02:36:59.415Z,15.99
2022-08-02T02:39:00.960Z,15.92
2022-08-02T02:41:03.583Z,15.90
2022-08-02T02:43:02.971Z,15.88
2022-08-02T02:45:02.237Z,15.98
2022-08-02T02:47:03.110Z,15.94
2022-08-02T02:49:02.689Z,15.92
2022-08-02T02:51:05.712Z,15.90
2022-08-02T02:53:07.943Z,16.20
2022-08-02T02:55:07.907Z,16.24
2022-08-02T02:57:07.488Z,16.50
2022-08-02T02:59:06.138Z,16.63
2022-08-02T03:01:22.269Z,16.53
2022-08-02T03:03:41.989Z,16.27
2022-08-02T03:05:40.486Z,16.12
2022-08-02T03:07:41.553Z,16.12
2022-08-02T03:09:40.036Z,16.08
2022-08-02T03:11:41.413Z,15.97
2022-08-02T03:13:40.590Z,15.96
2022-08-02T03:15:41.183Z,16.00
2022-08-02T03:17:41.683Z,16.06
2022-08-02T03:19:40.259Z,15.98
2022-08-02T03:21:38.648Z,15.93
2022-08-02T03:23:40.146Z,15.86
2022-08-02T03:25:38.336Z,15.81
2022-08-02T03:27:36.823Z,15.75
2022-08-02T03:29:35.170Z,15.75
2022-08-02T03:31:33.813Z,15.83
2022-08-02T03:33:32.856Z,15.90
2022-08-02T03:35:31.436Z,15.85
2022-08-02T03:37:31.345Z,15.96
2022-08-02T03:39:33.639Z,15.82
2022-08-02T03:41:32.428Z,15.84
2022-08-02T03:43:31.792Z,15.91
2022-08-02T03:45:30.917Z,15.97
2022-08-02T03:47:29.803Z,16.44
2022-08-02T03:49:29.218Z,16.75
2022-08-02T03:51:28.395Z,16.62
2022-08-02T03:53:27.225Z,16.97
2022-08-02T03:55:30.332Z,17.68
2022-08-02T03:57:28.917Z,18.28
2022-08-02T03:59:27.234Z,18.61
2022-08-02T04:01:30.933Z,18.39
2022-08-02T04:03:29.499Z,18.90
2022-08-02T04:05:27.980Z,19.97
2022-08-02T04:08:02.448Z,20.63
2022-08-02T04:09:44.430Z,21.14
2022-08-02T04:11:43.274Z,21.40
2022-08-02T04:13:42.050Z,21.63
2022-08-02T04:15:41.013Z,22.04
2022-08-02T04:17:43.122Z,21.54
2022-08-02T04:19:47.017Z,21.68
2022-08-02T04:21:51.612Z,21.23
2022-08-02T04:23:52.592Z,21.06
2022-08-02T04:25:52.558Z,20.85
2022-08-02T04:28:17.665Z,20.94
2022-08-02T04:30:13.437Z,20.93
2022-08-02T04:32:12.284Z,20.64
2022-08-02T04:34:15.094Z,20.91
2022-08-02T04:36:15.221Z,20.81
2022-08-02T04:38:29.601Z,20.74
2022-08-02T04:40:28.226Z,20.52
2022-08-02T04:42:28.485Z,21.53
2022-08-02T04:44:28.616Z,21.38
2022-08-02T04:46:27.788Z,20.90
2022-08-02T04:48:26.107Z,20.73
2022-08-02T04:50:24.552Z,20.95
2022-08-02T04:52:22.783Z,20.94
2022-08-02T04:54:21.104Z,20.82
2022-08-02T04:56:19.449Z,21.00
2022-08-02T04:58:39.418Z,21.31
2022-08-02T05:00:37.368Z,21.35
2022-08-02T05:02:35.730Z,21.68
2022-08-02T05:04:33.976Z,21.87
2022-08-02T05:06:32.331Z,21.85
2022-08-02T05:08:30.578Z,22.22
2022-08-02T05:10:28.883Z,22.08
2022-08-02T05:12:27.183Z,22.13
2022-08-02T05:14:25.807Z,22.29
2022-08-02T05:16:30.895Z,22.19
2022-08-02T05:18:30.050Z,22.15
2022-08-02T05:20:28.609Z,22.12
2022-08-02T05:22:26.988Z,22.20
2022-08-02T05:24:25.324Z,22.28
2022-08-02T05:26:23.743Z,22.19
2022-08-02T05:28:22.197Z,22.30
2022-08-02T05:30:20.420Z,21.71
2022-08-02T05:32:20.109Z,22.22
2022-08-02T05:34:18.577Z,21.71
2022-08-02T05:36:16.924Z,22.19
2022-08-02T05:38:15.930Z,22.38
2022-08-02T05:40:14.359Z,22.33
2022-08-02T05:42:14.083Z,22.47
2022-08-02T05:44:12.870Z,22.79
2022-08-02T05:46:11.233Z,22.65
2022-08-02T05:48:10.765Z,22.96
2022-08-02T05:50:10.454Z,22.91
2022-08-02T05:52:16.291Z,22.96
2022-08-02T05:54:21.077Z,23.26
2022-08-02T05:56:26.253Z,23.69
2022-08-02T05:58:32.348Z,23.83
2022-08-02T06:00:32.943Z,23.88
2022-08-02T06:02:37.837Z,24.12
2022-08-02T06:04:48.917Z,24.37
2022-08-02T06:06:53.933Z,24.71
2022-08-02T06:08:59.606Z,25.01
2022-08-02T06:10:58.302Z,25.45
2022-08-02T06:13:07.079Z,25.27
2022-08-02T06:15:06.685Z,25.15
2022-08-02T06:17:06.009Z,25.01
2022-08-02T06:19:05.656Z,25.07
2022-08-02T06:22:31.691Z,25.01
2022-08-02T06:23:27.974Z,24.79
2022-08-02T06:25:50.290Z,24.96
2022-08-02T06:27:45.691Z,25.32
2022-08-02T06:29:46.969Z,25.31
2022-08-02T06:31:46.284Z,25.36
2022-08-02T06:33:44.663Z,24.73
2022-08-02T06:35:47.505Z,24.91
2022-08-02T06:37:55.657Z,24.74
2022-08-02T06:40:03.132Z,25.05
2022-08-02T06:42:09.155Z,25.08
2022-08-02T06:44:44.446Z,25.06
2022-08-02T06:46:43.015Z,25.07
2022-08-02T06:48:48.551Z,24.99
2022-08-02T06:50:47.068Z,25.00
2022-08-02T06:52:46.694Z,25.03
2022-08-02T06:54:45.009Z,25.11
2022-08-02T06:56:43.309Z,25.46
2022-08-02T06:58:41.728Z,25.43
2022-08-02T07:00:40.424Z,25.11
2022-08-02T07:02:39.780Z,25.39
2022-08-02T07:04:38.129Z,25.31
2022-08-02T07:06:36.994Z,25.12
2022-08-02T07:08:38.609Z,25.19
2022-08-02T07:10:36.828Z,25.60
2022-08-02T07:12:36.617Z,25.88
2022-08-02T07:14:34.853Z,26.17
2022-08-02T07:16:34.402Z,25.67
2022-08-02T07:18:32.765Z,26.10
2022-08-02T07:20:31.073Z,26.08
2022-08-02T07:22:30.140Z,26.12
2022-08-02T07:24:30.100Z,25.84
2022-08-02T07:26:28.355Z,26.27
2022-08-02T07:28:26.918Z,26.88
2022-08-02T07:30:25.245Z,26.68
2022-08-02T07:32:25.634Z,26.35
2022-08-02T07:34:23.993Z,25.88
2022-08-02T07:36:22.898Z,26.58
2022-08-02T07:38:24.791Z,27.08
2022-08-02T07:40:26.245Z,27.22
2022-08-02T07:42:24.989Z,27.17
2022-08-02T07:44:23.758Z,27.10
2022-08-02T07:46:24.533Z,27.09
2022-08-02T07:48:22.739Z,27.55
2022-08-02T07:50:22.069Z,27.41
2022-08-02T07:52:20.897Z,27.60
2022-08-02T07:54:19.127Z,27.64
2022-08-02T07:56:18.779Z,27.58
2022-08-02T07:58:17.234Z,27.67
2022-08-02T08:00:17.610Z,27.88
2022-08-02T08:02:16.129Z,28.06
2022-08-02T08:04:14.608Z,27.95
2022-08-02T08:06:12.950Z,27.85
2022-08-02T08:08:16.907Z,27.64
2022-08-02T08:10:15.845Z,26.70
2022-08-02T08:12:16.662Z,27.82
2022-08-02T08:14:16.985Z,28.18
2022-08-02T08:16:15.689Z,29.18
2022-08-02T08:18:13.831Z,29.73
2022-08-02T08:20:15.739Z,30.51
2022-08-02T08:22:14.809Z,30.63
2022-08-02T08:24:13.186Z,31.15
2022-08-02T08:26:15.528Z,30.92
2022-08-02T08:28:15.446Z,31.54
2022-08-02T08:30:14.284Z,32.00
2022-08-02T08:32:17.521Z,31.49
2022-08-02T08:34:16.344Z,31.17
2022-08-02T08:36:16.708Z,29.88
2022-08-02T08:38:15.744Z,29.86
2022-08-02T08:40:19.406Z,31.33
2022-08-02T08:42:18.755Z,30.95
2022-08-02T08:44:19.054Z,31.35
2022-08-02T08:46:26.292Z,30.82
2022-08-02T08:48:30.850Z,31.92
2022-08-02T08:50:33.602Z,32.65
2022-08-02T08:52:36.674Z,32.65
2022-08-02T08:54:38.839Z,30.86
2022-08-02T08:56:37.754Z,31.75
2022-08-02T08:58:36.140Z,31.45
2022-08-02T09:00:37.262Z,32.26
2022-08-02T09:02:36.108Z,32.47
2022-08-02T09:04:34.570Z,32.57
2022-08-02T09:06:32.805Z,32.81
2022-08-02T09:08:32.228Z,32.35
2022-08-02T09:10:41.572Z,33.65
2022-08-02T09:12:39.753Z,32.74
2022-08-02T09:14:38.076Z,33.84
2022-08-02T09:16:40.128Z,33.42
2022-08-02T09:18:40.644Z,32.66
2022-08-02T09:20:54.535Z,34.23
2022-08-02T09:23:07.666Z,35.55
2022-08-02T09:25:09.763Z,35.62
2022-08-02T09:27:13.382Z,35.52
2022-08-02T09:29:12.328Z,34.86
2022-08-02T09:31:12.291Z,35.61
2022-08-02T09:33:12.148Z,37.07
2022-08-02T09:35:11.099Z,38.47
2022-08-02T09:37:23.830Z,37.75
2022-08-02T09:39:23.836Z,39.12
2022-08-02T09:41:23.408Z,37.16
2022-08-02T09:43:22.005Z,33.27
2022-08-02T09:45:20.427Z,31.97
2022-08-02T09:47:18.742Z,33.19
2022-08-02T09:49:20.139Z,34.32
2022-08-02T09:51:23.648Z,34.86
2022-08-02T09:53:22.065Z,34.75
2022-08-02T09:55:20.273Z,35.46
2022-08-02T09:57:29.161Z,36.11
2022-08-02T09:59:28.719Z,35.67
2022-08-02T10:01:34.206Z,36.47
2022-08-02T10:03:37.232Z,37.12
2022-08-02T10:05:56.233Z,36.20
2022-08-02T10:08:00.554Z,36.16
2022-08-02T10:09:58.843Z,36.56
2022-08-02T10:11:58.214Z,33.86
2022-08-02T10:13:57.204Z,34.46
2022-08-02T10:15:56.583Z,32.59
2022-08-02T10:17:54.797Z,30.75
2022-08-02T10:20:02.405Z,30.59
2022-08-02T10:22:07.594Z,32.00
2022-08-02T10:24:10.310Z,33.80
2022-08-02T10:26:09.436Z,33.58
2022-08-02T10:28:08.787Z,33.35
2022-08-02T10:30:09.039Z,33.85
2022-08-02T10:32:11.323Z,34.06
2022-08-02T10:34:12.337Z,35.18
2022-08-02T10:36:12.082Z,34.89
2022-08-02T10:38:13.728Z,35.75
2022-08-02T10:40:24.203Z,35.60
2022-08-02T10:42:47.233Z,37.29
2022-08-02T10:44:45.515Z,37.64
2022-08-02T10:46:43.956Z,37.62
2022-08-02T10:51:27.173Z,36.21
2022-08-02T10:53:28.912Z,35.89
2022-08-02T10:55:27.176Z,35.33
2022-08-02T10:57:27.347Z,34.56
2022-08-02T10:59:27.517Z,33.95
2022-08-02T11:01:38.751Z,32.63
2022-08-02T11:03:41.831Z,30.72
2022-08-02T11:05:42.910Z,30.09
2022-08-02T11:07:47.275Z,29.89
2022-08-02T11:09:49.101Z,29.45
2022-08-02T11:12:02.841Z,29.12
2022-08-02T11:14:03.719Z,29.32
2022-08-02T11:16:10.735Z,29.40
2022-08-02T11:18:10.191Z,30.04
2022-08-02T11:20:18.999Z,29.41
2022-08-02T11:22:25.120Z,28.62
2022-08-02T11:24:29.530Z,29.09
2022-08-02T11:26:47.487Z,29.56
2022-08-02T11:28:50.495Z,29.62
2022-08-02T11:30:58.027Z,29.90
2022-08-02T11:32:58.034Z,29.73
2022-08-02T11:34:57.703Z,30.06
2022-08-02T11:36:56.209Z,30.11
2022-08-02T11:39:12.014Z,29.97
2022-08-02T11:41:11.287Z,30.02
2022-08-02T11:43:19.851Z,29.90
2022-08-02T11:45:20.889Z,30.12
2022-08-02T11:47:21.521Z,29.57
2022-08-02T11:49:20.295Z,29.36
2022-08-02T11:51:19.641Z,29.01
2022-08-02T11:53:18.279Z,28.96
2022-08-02T11:55:16.607Z,28.89
2022-08-02T11:57:20.096Z,29.17
2022-08-02T11:59:20.620Z,28.91
2022-08-02T12:01:18.843Z,29.13
2022-08-02T12:03:20.969Z,29.27
2022-08-02T12:05:24.637Z,29.20
2022-08-02T12:07:30.425Z,28.73
2022-08-02T12:09:41.055Z,28.72
2022-08-02T12:11:39.726Z,28.14
2022-08-02T12:13:44.883Z,28.25
2022-08-02T12:16:16.655Z,28.43
2022-08-02T12:18:39.831Z,28.67
2022-08-02T12:20:38.807Z,29.02
2022-08-02T12:22:41.817Z,28.66
2022-08-02T12:24:42.458Z,28.76
2022-08-02T12:26:44.673Z,28.85
2022-08-02T12:28:43.005Z,28.73
2022-08-02T12:30:54.200Z,28.84
2022-08-02T12:32:53.914Z,28.69
2022-08-02T12:35:03.132Z,28.80
2022-08-02T12:37:04.280Z,28.77
2022-08-02T12:39:03.179Z,29.02
2022-08-02T12:41:31.081Z,28.92
2022-08-02T12:43:30.754Z,28.41
2022-08-02T12:45:40.444Z,28.25
2022-08-02T12:47:48.917Z,28.05
2022-08-02T12:49:48.867Z,27.75
2022-08-02T12:51:50.595Z,27.76
2022-08-02T12:53:59.928Z,27.88
2022-08-02T12:56:03.329Z,28.09
2022-08-02T12:58:05.594Z,28.03
2022-08-02T13:00:04.513Z,28.15
2022-08-02T13:02:07.269Z,28.29
2022-08-02T13:04:10.816Z,28.45
2022-08-02T13:06:41.057Z,28.62
2022-08-02T13:08:31.190Z,28.78
2022-08-02T13:10:29.837Z,28.22
2022-08-02T13:12:27.935Z,28.44
2022-08-02T13:14:26.178Z,28.58
2022-08-02T13:16:31.290Z,28.85
2022-08-02T13:18:30.172Z,28.98
2022-08-02T13:20:30.005Z,28.50
2022-08-02T13:22:29.690Z,28.68
2022-08-02T13:24:40.076Z,28.55
2022-08-02T13:26:47.327Z,28.39
2022-08-02T13:28:45.726Z,28.03
2022-08-02T13:30:44.027Z,27.98
2022-08-02T13:32:42.368Z,27.84
2022-08-02T13:34:41.357Z,27.89
2022-08-02T13:36:39.642Z,27.74
2022-08-02T13:38:39.330Z,27.79
2022-08-02T13:41:04.364Z,27.75
2022-08-02T13:43:03.403Z,27.71
2022-08-02T13:45:11.745Z,27.95
2022-08-02T13:47:11.744Z,28.16
2022-08-02T13:49:10.131Z,28.36
2022-08-02T13:51:15.052Z,28.27
2022-08-02T13:53:13.554Z,28.33
2022-08-02T13:55:13.170Z,28.37
2022-08-02T13:57:11.632Z,28.38
2022-08-02T13:59:54.132Z,28.30
2022-08-02T14:01:28.336Z,28.20
2022-08-02T14:03:26.986Z,28.19
2022-08-02T14:05:48.468Z,28.03
2022-08-02T14:07:47.469Z,28.03
2022-08-02T14:09:45.834Z,28.12
2022-08-02T14:11:45.452Z,28.22
2022-08-02T14:13:43.952Z,28.20
2022-08-02T14:15:42.971Z,28.24
2022-08-02T14:17:41.183Z,28.27
2022-08-02T14:19:39.846Z,28.39
2022-08-02T14:21:46.369Z,28.26
2022-08-02T14:23:49.869Z,28.30
2022-08-02T14:25:49.503Z,28.24
2022-08-02T14:27:49.169Z,28.29
2022-08-02T14:29:50.356Z,28.13
2022-08-02T14:31:48.608Z,27.96
2022-08-02T14:33:47.033Z,27.78
2022-08-02T14:35:45.289Z,27.83
2022-08-02T14:37:43.673Z,27.85
2022-08-02T14:39:43.437Z,27.76
2022-08-02T14:42:00.879Z,27.72
2022-08-02T14:44:07.984Z,27.58
2022-08-02T14:46:06.277Z,27.46
2022-08-02T14:48:04.962Z,27.27
2022-08-02T14:50:03.437Z,27.17
2022-08-02T14:52:01.790Z,27.04
2022-08-02T14:54:02.798Z,27.09
2022-08-02T14:56:01.789Z,27.19
2022-08-02T14:58:00.080Z,27.18
2022-08-02T15:00:01.657Z,27.15
2022-08-02T15:02:01.319Z,27.13
2022-08-02T15:03:59.752Z,27.08
2022-08-02T15:05:58.223Z,27.05
2022-08-02T15:07:56.454Z,27.02
2022-08-02T15:09:56.073Z,27.06
2022-08-02T15:11:54.789Z,27.01
2022-08-02T15:14:04.314Z,27.12
2022-08-02T15:16:04.450Z,27.17
2022-08-02T15:18:02.691Z,27.18
2022-08-02T15:20:24.633Z,27.26
2022-08-02T15:22:20.001Z,27.28
2022-08-02T15:24:18.534Z,27.29
2022-08-02T15:26:16.730Z,27.28
2022-08-02T15:28:15.111Z,27.23
2022-08-02T15:30:13.905Z,27.21
2022-08-02T15:32:13.941Z,27.30
2022-08-02T15:34:12.768Z,27.30
2022-08-02T15:36:11.602Z,27.24
2022-08-02T15:38:09.932Z,27.21
2022-08-02T15:40:12.326Z,27.23
2022-08-02T15:42:11.003Z,27.26
2022-08-02T15:44:10.623Z,27.31
2022-08-02T15:46:09.819Z,27.41
2022-08-02T15:48:09.736Z,27.40
2022-08-02T15:50:08.684Z,27.40
2022-08-02T15:52:09.189Z,27.33
2022-08-02T15:54:07.650Z,27.24
2022-08-02T15:56:09.837Z,27.24
2022-08-02T15:58:17.119Z,27.24
2022-08-02T16:00:31.861Z,27.12
2022-08-02T16:02:30.257Z,27.11
2022-08-02T16:04:30.042Z,26.99
2022-08-02T16:06:28.506Z,26.94
2022-08-02T16:08:26.815Z,26.96
2022-08-02T16:10:25.379Z,26.89
2022-08-02T16:12:32.402Z,26.87
2022-08-02T16:14:31.478Z,26.92
2022-08-02T16:16:31.760Z,26.89
2022-08-02T16:18:30.104Z,26.83
2022-08-02T16:20:29.783Z,26.74
2022-08-02T16:22:28.226Z,26.68
2022-08-02T16:24:27.026Z,26.71
2022-08-02T16:26:26.546Z,26.66
2022-08-02T16:28:24.971Z,26.69
2022-08-02T16:30:23.536Z,26.57
2022-08-02T16:32:22.137Z,26.62
2022-08-02T16:34:20.716Z,26.61
2022-08-02T16:36:20.443Z,26.61
2022-08-02T16:38:18.580Z,26.62
2022-08-02T16:40:16.931Z,26.59
2022-08-02T16:42:16.937Z,26.59
2022-08-02T16:44:29.252Z,26.59
2022-08-02T16:46:28.605Z,26.52
2022-08-02T16:48:28.153Z,26.51
2022-08-02T16:50:28.810Z,26.47
2022-08-02T16:52:29.157Z,26.43
2022-08-02T16:54:27.941Z,26.40
2022-08-02T16:56:32.758Z,26.33
2022-08-02T16:58:32.080Z,26.28
2022-08-02T17:00:31.296Z,26.22
2022-08-02T17:02:30.530Z,26.21
2022-08-02T17:04:29.039Z,26.16
2022-08-02T17:06:28.293Z,26.10
2022-08-02T17:10:47.384Z,26.08
2022-08-02T17:12:45.886Z,26.12
2022-08-02T17:14:55.684Z,26.03
2022-08-02T17:16:54.535Z,25.96
2022-08-02T17:18:54.012Z,25.97
2022-08-02T17:20:52.811Z,26.01
2022-08-02T17:22:51.332Z,26.00
2022-08-02T17:24:51.663Z,25.93
2022-08-02T17:26:50.774Z,25.93
2022-08-02T17:29:15.263Z,25.81
2022-08-02T17:31:08.596Z,25.78
2022-08-02T17:33:07.350Z,25.77
2022-08-02T17:35:10.018Z,25.77
2022-08-02T17:37:09.194Z,25.75
2022-08-02T17:39:07.754Z,25.59
2022-08-02T17:41:15.146Z,25.54
2022-08-02T17:43:14.200Z,25.51
2022-08-02T17:45:17.104Z,25.49
2022-08-02T17:47:30.578Z,25.41
2022-08-02T17:49:30.112Z,25.35
2022-08-02T17:52:15.392Z,25.20
2022-08-02T17:53:49.878Z,25.17
2022-08-02T17:55:51.105Z,25.04
2022-08-02T17:57:57.954Z,24.92
2022-08-02T18:00:03.644Z,24.86
2022-08-02T18:02:04.483Z,24.84
2022-08-02T18:04:04.251Z,24.82
2022-08-02T18:06:03.057Z,24.78
2022-08-02T18:08:02.142Z,24.77
2022-08-02T18:10:01.674Z,24.77
2022-08-02T18:12:00.541Z,24.63
2022-08-02T18:14:00.523Z,24.63
2022-08-02T18:18:19.062Z,24.54
2022-08-02T18:20:25.356Z,24.54
2022-08-02T18:22:25.055Z,24.51
2022-08-02T18:24:25.152Z,24.44
2022-08-02T18:26:23.797Z,24.49
2022-08-02T18:28:26.671Z,24.48
2022-08-02T18:30:28.415Z,24.46
2022-08-02T18:33:56.052Z,24.32
2022-08-02T18:34:47.767Z,24.20
2022-08-02T18:36:47.117Z,24.02
2022-08-02T18:38:46.558Z,23.94
2022-08-02T18:43:07.009Z,23.90
2022-08-02T18:45:08.241Z,23.88
2022-08-02T18:47:19.060Z,23.73
2022-08-02T18:49:17.695Z,23.63
2022-08-02T18:51:19.040Z,23.56
2022-08-02T18:53:28.018Z,23.49
2022-08-02T18:56:00.242Z,23.39
2022-08-02T18:58:18.760Z,23.34
2022-08-02T19:00:15.107Z,23.24
2022-08-02T19:02:20.169Z,23.27
2022-08-02T19:04:26.924Z,23.38
2022-08-02T19:06:27.702Z,23.19
2022-08-02T19:08:27.294Z,23.11
2022-08-02T19:10:25.934Z,23.01
2022-08-02T19:14:43.999Z,22.94
2022-08-02T19:16:42.514Z,22.91
2022-08-02T19:18:42.196Z,22.88
2022-08-02T19:20:40.746Z,22.91
2022-08-02T19:22:47.094Z,22.86
2022-08-02T19:25:01.502Z,22.87
2022-08-02T19:27:13.291Z,22.82
2022-08-02T19:29:12.859Z,22.81
2022-08-02T19:31:12.136Z,22.79
2022-08-02T19:33:10.843Z,22.78
2022-08-02T19:35:29.418Z,22.77
2022-08-02T19:37:37.130Z,22.69
2022-08-02T19:39:39.387Z,22.60
2022-08-02T19:41:44.001Z,22.58
2022-08-02T19:44:25.538Z,22.49
2022-08-02T19:46:05.287Z,22.42
2022-08-02T19:48:07.848Z,22.38
2022-08-02T19:50:07.995Z,22.38
2022-08-02T19:52:21.556Z,22.34
2022-08-02T19:54:22.984Z,22.41
2022-08-02T19:56:41.624Z,22.40
2022-08-02T19:58:44.776Z,22.34
2022-08-02T20:00:43.591Z,22.33
2022-08-02T20:02:43.493Z,22.26
2022-08-02T20:04:50.047Z,22.23
2022-08-02T20:06:51.257Z,22.13
2022-08-02T20:08:53.425Z,21.99
2022-08-02T20:10:56.702Z,22.00
2022-08-02T20:12:55.707Z,22.03
2022-08-02T20:14:54.702Z,21.96
2022-08-02T20:16:54.235Z,21.94
2022-08-02T20:18:52.591Z,21.88
2022-08-02T20:20:51.481Z,21.80
2022-08-02T20:25:28.887Z,21.81
2022-08-02T20:27:30.299Z,21.79
2022-08-02T20:29:45.157Z,21.64
2022-08-02T20:31:47.084Z,21.52
2022-08-02T20:33:55.943Z,21.51
2022-08-02T20:35:54.979Z,21.45
2022-08-02T20:38:01.821Z,21.40
2022-08-02T20:40:01.116Z,21.47
2022-08-02T20:42:04.687Z,21.36
2022-08-02T20:44:30.835Z,21.32
2022-08-02T20:46:29.648Z,21.28
2022-08-02T20:48:29.887Z,21.35
2022-08-02T20:50:45.965Z,21.31
2022-08-02T20:52:48.529Z,21.30
2022-08-02T20:54:46.820Z,21.25
2022-08-02T20:56:45.164Z,21.25
2022-08-02T21:01:08.574Z,21.07
2022-08-02T21:03:07.620Z,21.07
2022-08-02T21:05:07.665Z,20.97
2022-08-02T21:07:13.716Z,20.87
2022-08-02T21:09:16.421Z,20.96
2022-08-02T21:11:16.645Z,21.02
2022-08-02T21:13:18.937Z,21.02
2022-08-02T21:15:22.321Z,20.92
2022-08-02T21:17:27.672Z,20.87
2022-08-02T21:19:44.198Z,20.81
2022-08-02T21:21:42.543Z,20.82
2022-08-02T21:23:48.471Z,20.73
2022-08-02T21:25:57.008Z,20.74
2022-08-02T21:27:56.113Z,20.69
2022-08-02T21:29:54.357Z,20.62
2022-08-02T21:31:55.040Z,20.59
2022-08-02T21:33:57.443Z,20.62
2022-08-02T21:35:57.152Z,20.64
2022-08-02T21:37:58.316Z,20.66
2022-08-02T21:39:57.641Z,20.67
2022-08-02T21:41:55.922Z,20.59
2022-08-02T21:43:54.417Z,20.56
2022-08-02T21:45:53.834Z,20.67
2022-08-02T21:47:55.586Z,20.60
2022-08-02T21:50:10.437Z,20.56
2022-08-02T21:52:14.035Z,20.51
2022-08-02T21:54:17.645Z,20.47
2022-08-02T21:56:17.592Z,20.48
2022-08-02T21:58:15.963Z,20.60
2022-08-02T22:00:28.402Z,20.64
2022-08-02T22:02:30.667Z,20.56
2022-08-02T22:04:30.900Z,20.46
2022-08-02T22:06:29.211Z,20.42
2022-08-02T22:08:27.535Z,20.40
2022-08-02T22:10:26.141Z,20.32
2022-08-02T22:14:42.854Z,20.28
2022-08-02T22:16:47.824Z,20.20
2022-08-02T22:18:51.481Z,20.17
2022-08-02T22:20:52.436Z,20.14
2022-08-02T22:22:51.456Z,20.09
2022-08-02T22:24:51.142Z,20.02
2022-08-02T22:26:50.285Z,19.96
2022-08-02T22:28:51.824Z,19.91
2022-08-02T22:30:52.971Z,19.84
2022-08-02T22:33:15.541Z,19.78
2022-08-02T22:35:13.959Z,19.83
2022-08-02T22:38:17.011Z,19.84
2022-08-02T22:39:32.347Z,19.87
2022-08-02T22:42:01.295Z,19.86
2022-08-02T22:43:50.010Z,19.85
2022-08-02T22:45:48.304Z,19.77
2022-08-02T22:47:51.253Z,19.80
2022-08-02T22:49:53.193Z,19.89
2022-08-02T22:51:54.213Z,19.91
2022-08-02T22:53:54.006Z,19.77
2022-08-02T22:55:52.381Z,19.67
2022-08-02T22:57:57.129Z,19.64
2022-08-02T22:58:50.344Z,26.00
2022-08-02T22:58:56.732Z,21.24
2022-08-02T22:58:59.151Z,24.64
2022-08-02T22:59:00.206Z,22.97
2022-08-02T22:59:00.438Z,23.97
2022-08-02T22:59:04.404Z,20.29
2022-08-02T22:59:05.637Z,21.83
2022-08-02T22:59:55.809Z,19.57
2022-08-02T23:01:54.181Z,19.50
2022-08-02T23:03:52.346Z,19.47
2022-08-02T23:05:51.165Z,19.46
2022-08-02T23:07:49.488Z,19.42
2022-08-02T23:09:49.154Z,19.37
2022-08-02T23:11:47.304Z,19.33
2022-08-02T23:13:45.523Z,19.42
2022-08-02T23:16:01.906Z,19.42
2022-08-02T23:18:16.588Z,19.37
2022-08-02T23:20:16.697Z,19.29
2022-08-02T23:22:15.083Z,19.38
2022-08-02T23:24:13.598Z,19.34
2022-08-02T23:26:13.266Z,19.30
2022-08-02T23:28:11.616Z,19.27
2022-08-02T23:30:11.186Z,19.18
2022-08-02T23:32:09.934Z,19.15
2022-08-02T23:34:08.304Z,19.24
2022-08-02T23:36:06.776Z,19.24
2022-08-02T23:38:05.040Z,19.19
2022-08-02T23:40:03.628Z,19.16
2022-08-02T23:42:03.726Z,19.15
2022-08-02T23:44:13.447Z,19.13
2022-08-02T23:46:52.639Z,19.06
2022-08-02T23:49:15.310Z,19.05
2022-08-02T23:51:21.933Z,18.98
2022-08-02T23:53:20.665Z,18.94
2022-08-02T23:55:19.044Z,18.94
2022-08-02T23:57:20.673Z,18.94
2022-08-02T23:59:19.807Z,18.97
